sensor_id;sensor_type;location;lat;lon;timestamp;P1;durP1;ratioP1;P2;durP2;ratioP2
77495;SDS011;66600;48.378;9.948;2023-02-28T00:00:08;5.28;;;3.28;;
77495;SDS011;66600;48.378;9.948;2023-02-28T00:02:40;7.15;;;3.90;;
77495;SDS011;66600;48.378;9.948;2023-02-28T00:05:07;6.57;;;3.92;;
77495;SDS011;66600;48.378;9.948;2023-02-28T00:07:34;7.03;;;3.38;;
77495;SDS011;66600;48.378;9.948;2023-02-28T00:09:59;6.15;;;3.40;;
77495;SDS011;66600;48.378;9.948;2023-02-28T00:12:25;8.38;;;4.18;;
77495;SDS011;66600;48.378;9.948;2023-02-28T00:14:51;7.05;;;4.13;;
77495;SDS011;66600;48.378;9.948;2023-02-28T00:17:16;8.20;;;4.35;;
77495;SDS011;66600;48.378;9.948;2023-02-28T00:19:46;7.05;;;4.15;;
77495;SDS011;66600;48.378;9.948;2023-02-28T00:22:15;5.25;;;3.45;;
77495;SDS011;66600;48.378;9.948;2023-02-28T00:24:42;6.82;;;3.63;;
77495;SDS011;66600;48.378;9.948;2023-02-28T00:27:07;7.75;;;3.88;;
77495;SDS011;66600;48.378;9.948;2023-02-28T00:29:32;5.45;;;3.58;;
77495;SDS011;66600;48.378;9.948;2023-02-28T00:31:58;8.40;;;3.90;;
77495;SDS011;66600;48.378;9.948;2023-02-28T00:34:23;5.80;;;3.65;;
77495;SDS011;66600;48.378;9.948;2023-02-28T00:36:48;7.13;;;3.88;;
77495;SDS011;66600;48.378;9.948;2023-02-28T00:39:14;4.60;;;3.08;;
77495;SDS011;66600;48.378;9.948;2023-02-28T00:41:39;8.73;;;4.03;;
77495;SDS011;66600;48.378;9.948;2023-02-28T00:44:05;6.00;;;3.30;;
77495;SDS011;66600;48.378;9.948;2023-02-28T00:46:30;5.70;;;3.28;;
77495;SDS011;66600;48.378;9.948;2023-02-28T00:48:56;5.85;;;3.35;;
77495;SDS011;66600;48.378;9.948;2023-02-28T00:51:21;6.15;;;3.88;;
77495;SDS011;66600;48.378;9.948;2023-02-28T00:53:46;7.40;;;4.10;;
77495;SDS011;66600;48.378;9.948;2023-02-28T00:56:12;6.88;;;3.30;;
77495;SDS011;66600;48.378;9.948;2023-02-28T00:58:37;6.30;;;3.55;;
77495;SDS011;66600;48.378;9.948;2023-02-28T01:01:02;4.72;;;3.03;;
77495;SDS011;66600;48.378;9.948;2023-02-28T01:03:28;5.15;;;3.45;;
77495;SDS011;66600;48.378;9.948;2023-02-28T01:05:53;5.82;;;3.20;;
77495;SDS011;66600;48.378;9.948;2023-02-28T01:08:18;7.75;;;3.75;;
77495;SDS011;66600;48.378;9.948;2023-02-28T01:10:44;6.55;;;3.35;;
77495;SDS011;66600;48.378;9.948;2023-02-28T01:13:10;7.47;;;3.67;;
77495;SDS011;66600;48.378;9.948;2023-02-28T01:15:36;7.88;;;3.45;;
77495;SDS011;66600;48.378;9.948;2023-02-28T01:18:02;4.65;;;3.00;;
77495;SDS011;66600;48.378;9.948;2023-02-28T01:20:28;6.50;;;3.80;;
77495;SDS011;66600;48.378;9.948;2023-02-28T01:22:53;5.88;;;3.80;;
77495;SDS011;66600;48.378;9.948;2023-02-28T01:25:18;8.45;;;4.43;;
77495;SDS011;66600;48.378;9.948;2023-02-28T01:27:44;8.15;;;4.00;;
77495;SDS011;66600;48.378;9.948;2023-02-28T01:30:10;8.57;;;3.80;;
77495;SDS011;66600;48.378;9.948;2023-02-28T01:32:36;7.53;;;3.80;;
77495;SDS011;66600;48.378;9.948;2023-02-28T01:35:01;7.53;;;4.05;;
77495;SDS011;66600;48.378;9.948;2023-02-28T01:37:30;7.55;;;3.72;;
77495;SDS011;66600;48.378;9.948;2023-02-28T01:39:55;6.50;;;3.63;;
77495;SDS011;66600;48.378;9.948;2023-02-28T01:42:20;4.97;;;3.22;;
77495;SDS011;66600;48.378;9.948;2023-02-28T01:47:45;6.30;;;3.35;;
77495;SDS011;66600;48.378;9.948;2023-02-28T01:50:13;7.97;;;3.38;;
77495;SDS011;66600;48.378;9.948;2023-02-28T01:52:42;9.80;;;3.83;;
77495;SDS011;66600;48.378;9.948;2023-02-28T01:55:08;4.50;;;2.88;;
77495;SDS011;66600;48.378;9.948;2023-02-28T01:57:41;7.47;;;4.30;;
77495;SDS011;66600;48.378;9.948;2023-02-28T02:00:11;10.38;;;5.20;;
77495;SDS011;66600;48.378;9.948;2023-02-28T02:02:41;7.35;;;3.88;;
77495;SDS011;66600;48.378;9.948;2023-02-28T02:05:12;7.93;;;4.60;;
77495;SDS011;66600;48.378;9.948;2023-02-28T02:07:41;5.90;;;3.72;;
77495;SDS011;66600;48.378;9.948;2023-02-28T02:10:13;6.35;;;3.90;;
77495;SDS011;66600;48.378;9.948;2023-02-28T02:15:53;7.00;;;3.67;;
77495;SDS011;66600;48.378;9.948;2023-02-28T02:18:29;5.68;;;3.15;;
77495;SDS011;66600;48.378;9.948;2023-02-28T02:24:16;8.35;;;4.30;;
77495;SDS011;66600;48.378;9.948;2023-02-28T02:27:13;8.38;;;4.55;;
77495;SDS011;66600;48.378;9.948;2023-02-28T02:35:05;5.65;;;3.58;;
77495;SDS011;66600;48.378;9.948;2023-02-28T02:40:35;7.72;;;3.85;;
77495;SDS011;66600;48.378;9.948;2023-02-28T02:45:43;7.65;;;4.00;;
77495;SDS011;66600;48.378;9.948;2023-02-28T02:48:11;6.07;;;3.42;;
77495;SDS011;66600;48.378;9.948;2023-02-28T02:50:42;7.88;;;4.47;;
77495;SDS011;66600;48.378;9.948;2023-02-28T02:53:12;7.03;;;3.63;;
77495;SDS011;66600;48.378;9.948;2023-02-28T02:55:40;7.60;;;4.03;;
77495;SDS011;66600;48.378;9.948;2023-02-28T02:58:16;8.07;;;3.80;;
77495;SDS011;66600;48.378;9.948;2023-02-28T03:00:45;5.63;;;3.58;;
77495;SDS011;66600;48.378;9.948;2023-02-28T03:03:16;5.95;;;3.42;;
77495;SDS011;66600;48.378;9.948;2023-02-28T03:05:46;9.13;;;4.03;;
77495;SDS011;66600;48.378;9.948;2023-02-28T03:08:15;7.53;;;4.20;;
77495;SDS011;66600;48.378;9.948;2023-02-28T03:10:42;6.65;;;4.15;;
77495;SDS011;66600;48.378;9.948;2023-02-28T03:13:20;6.88;;;4.40;;
77495;SDS011;66600;48.378;9.948;2023-02-28T03:24:43;7.13;;;4.20;;
77495;SDS011;66600;48.378;9.948;2023-02-28T03:27:15;5.95;;;3.17;;
77495;SDS011;66600;48.378;9.948;2023-02-28T03:30:11;6.55;;;4.18;;
77495;SDS011;66600;48.378;9.948;2023-02-28T03:32:46;7.75;;;3.97;;
77495;SDS011;66600;48.378;9.948;2023-02-28T03:35:23;8.00;;;4.10;;
77495;SDS011;66600;48.378;9.948;2023-02-28T03:37:56;6.80;;;3.38;;
77495;SDS011;66600;48.378;9.948;2023-02-28T03:40:29;6.95;;;3.97;;
77495;SDS011;66600;48.378;9.948;2023-02-28T03:42:59;6.50;;;4.15;;
77495;SDS011;66600;48.378;9.948;2023-02-28T03:45:33;8.27;;;3.90;;
77495;SDS011;66600;48.378;9.948;2023-02-28T03:48:05;9.40;;;5.10;;
77495;SDS011;66600;48.378;9.948;2023-02-28T03:50:42;7.78;;;4.05;;
77495;SDS011;66600;48.378;9.948;2023-02-28T03:53:14;9.25;;;4.25;;
77495;SDS011;66600;48.378;9.948;2023-02-28T03:55:46;8.23;;;4.70;;
77495;SDS011;66600;48.378;9.948;2023-02-28T03:58:20;7.38;;;4.40;;
77495;SDS011;66600;48.378;9.948;2023-02-28T04:00:53;6.72;;;3.97;;
77495;SDS011;66600;48.378;9.948;2023-02-28T04:03:24;6.32;;;3.38;;
77495;SDS011;66600;48.378;9.948;2023-02-28T04:05:50;9.60;;;4.68;;
77495;SDS011;66600;48.378;9.948;2023-02-28T04:08:17;8.15;;;4.93;;
77495;SDS011;66600;48.378;9.948;2023-02-28T04:10:43;7.68;;;4.32;;
77495;SDS011;66600;48.378;9.948;2023-02-28T04:13:12;9.65;;;4.00;;
77495;SDS011;66600;48.378;9.948;2023-02-28T04:15:37;9.82;;;4.55;;
77495;SDS011;66600;48.378;9.948;2023-02-28T04:18:02;8.25;;;4.60;;
77495;SDS011;66600;48.378;9.948;2023-02-28T04:20:28;8.43;;;4.80;;
77495;SDS011;66600;48.378;9.948;2023-02-28T04:22:53;6.78;;;3.70;;
77495;SDS011;66600;48.378;9.948;2023-02-28T04:25:18;9.52;;;5.00;;
77495;SDS011;66600;48.378;9.948;2023-02-28T04:27:43;10.13;;;5.53;;
77495;SDS011;66600;48.378;9.948;2023-02-28T04:30:09;9.25;;;4.63;;
77495;SDS011;66600;48.378;9.948;2023-02-28T04:32:35;11.85;;;5.45;;
77495;SDS011;66600;48.378;9.948;2023-02-28T04:35:01;6.95;;;3.85;;
77495;SDS011;66600;48.378;9.948;2023-02-28T04:37:27;9.60;;;4.78;;
77495;SDS011;66600;48.378;9.948;2023-02-28T04:39:53;10.32;;;5.50;;
77495;SDS011;66600;48.378;9.948;2023-02-28T04:42:19;10.57;;;4.53;;
77495;SDS011;66600;48.378;9.948;2023-02-28T04:44:45;5.97;;;3.90;;
77495;SDS011;66600;48.378;9.948;2023-02-28T04:47:10;9.65;;;5.10;;
77495;SDS011;66600;48.378;9.948;2023-02-28T04:49:36;8.52;;;4.72;;
77495;SDS011;66600;48.378;9.948;2023-02-28T04:52:01;12.40;;;5.68;;
77495;SDS011;66600;48.378;9.948;2023-02-28T04:54:26;9.35;;;4.90;;
77495;SDS011;66600;48.378;9.948;2023-02-28T04:56:53;9.50;;;4.90;;
77495;SDS011;66600;48.378;9.948;2023-02-28T04:59:19;10.43;;;5.38;;
77495;SDS011;66600;48.378;9.948;2023-02-28T05:01:46;10.15;;;4.65;;
77495;SDS011;66600;48.378;9.948;2023-02-28T05:04:12;11.57;;;5.63;;
77495;SDS011;66600;48.378;9.948;2023-02-28T05:06:37;11.10;;;5.40;;
77495;SDS011;66600;48.378;9.948;2023-02-28T05:09:02;11.25;;;5.68;;
77495;SDS011;66600;48.378;9.948;2023-02-28T05:11:29;12.07;;;5.60;;
77495;SDS011;66600;48.378;9.948;2023-02-28T05:13:59;11.93;;;5.88;;
77495;SDS011;66600;48.378;9.948;2023-02-28T05:16:25;15.15;;;5.97;;
77495;SDS011;66600;48.378;9.948;2023-02-28T05:18:50;12.93;;;5.93;;
77495;SDS011;66600;48.378;9.948;2023-02-28T05:21:26;11.90;;;6.85;;
77495;SDS011;66600;48.378;9.948;2023-02-28T05:23:55;7.90;;;4.43;;
77495;SDS011;66600;48.378;9.948;2023-02-28T05:26:21;14.65;;;6.60;;
77495;SDS011;66600;48.378;9.948;2023-02-28T05:28:47;9.90;;;5.55;;
77495;SDS011;66600;48.378;9.948;2023-02-28T05:31:12;11.73;;;5.72;;
77495;SDS011;66600;48.378;9.948;2023-02-28T05:33:38;13.73;;;5.78;;
77495;SDS011;66600;48.378;9.948;2023-02-28T05:36:04;10.65;;;5.80;;
77495;SDS011;66600;48.378;9.948;2023-02-28T05:38:30;12.90;;;6.70;;
77495;SDS011;66600;48.378;9.948;2023-02-28T05:40:55;11.98;;;6.60;;
77495;SDS011;66600;48.378;9.948;2023-02-28T05:43:21;13.63;;;7.00;;
77495;SDS011;66600;48.378;9.948;2023-02-28T05:45:46;11.27;;;6.13;;
77495;SDS011;66600;48.378;9.948;2023-02-28T05:48:12;10.95;;;6.53;;
77495;SDS011;66600;48.378;9.948;2023-02-28T05:50:37;11.30;;;5.68;;
77495;SDS011;66600;48.378;9.948;2023-02-28T05:53:03;10.35;;;6.22;;
77495;SDS011;66600;48.378;9.948;2023-02-28T05:55:28;14.48;;;7.15;;
77495;SDS011;66600;48.378;9.948;2023-02-28T05:57:54;12.05;;;5.70;;
77495;SDS011;66600;48.378;9.948;2023-02-28T06:00:20;14.52;;;7.68;;
77495;SDS011;66600;48.378;9.948;2023-02-28T06:02:46;12.45;;;6.85;;
77495;SDS011;66600;48.378;9.948;2023-02-28T06:05:15;11.80;;;6.28;;
77495;SDS011;66600;48.378;9.948;2023-02-28T06:07:42;12.00;;;5.70;;
77495;SDS011;66600;48.378;9.948;2023-02-28T06:10:09;11.75;;;6.60;;
77495;SDS011;66600;48.378;9.948;2023-02-28T06:12:35;15.27;;;7.68;;
77495;SDS011;66600;48.378;9.948;2023-02-28T06:15:01;17.83;;;8.10;;
77495;SDS011;66600;48.378;9.948;2023-02-28T06:17:27;15.30;;;8.15;;
77495;SDS011;66600;48.378;9.948;2023-02-28T06:19:52;16.05;;;8.50;;
77495;SDS011;66600;48.378;9.948;2023-02-28T06:22:17;15.73;;;7.60;;
77495;SDS011;66600;48.378;9.948;2023-02-28T06:24:43;15.95;;;7.78;;
77495;SDS011;66600;48.378;9.948;2023-02-28T06:27:08;15.75;;;7.63;;
77495;SDS011;66600;48.378;9.948;2023-02-28T06:29:34;14.90;;;7.75;;
77495;SDS011;66600;48.378;9.948;2023-02-28T06:32:00;17.05;;;7.80;;
77495;SDS011;66600;48.378;9.948;2023-02-28T06:34:25;10.98;;;5.57;;
77495;SDS011;66600;48.378;9.948;2023-02-28T06:36:51;12.65;;;7.22;;
77495;SDS011;66600;48.378;9.948;2023-02-28T06:39:17;10.07;;;5.95;;
77495;SDS011;66600;48.378;9.948;2023-02-28T06:41:42;16.92;;;9.02;;
77495;SDS011;66600;48.378;9.948;2023-02-28T06:44:14;14.88;;;8.35;;
77495;SDS011;66600;48.378;9.948;2023-02-28T06:46:43;17.13;;;8.45;;
77495;SDS011;66600;48.378;9.948;2023-02-28T06:49:09;17.08;;;8.40;;
77495;SDS011;66600;48.378;9.948;2023-02-28T06:51:36;16.85;;;8.15;;
77495;SDS011;66600;48.378;9.948;2023-02-28T06:54:03;16.42;;;9.55;;
77495;SDS011;66600;48.378;9.948;2023-02-28T06:56:29;17.13;;;8.02;;
77495;SDS011;66600;48.378;9.948;2023-02-28T06:58:55;13.55;;;6.90;;
77495;SDS011;66600;48.378;9.948;2023-02-28T07:01:21;18.85;;;10.00;;
77495;SDS011;66600;48.378;9.948;2023-02-28T07:03:49;15.20;;;8.20;;
77495;SDS011;66600;48.378;9.948;2023-02-28T07:06:17;18.27;;;8.40;;
77495;SDS011;66600;48.378;9.948;2023-02-28T07:08:49;17.38;;;9.07;;
77495;SDS011;66600;48.378;9.948;2023-02-28T07:11:18;18.33;;;8.30;;
77495;SDS011;66600;48.378;9.948;2023-02-28T07:13:44;17.90;;;8.90;;
77495;SDS011;66600;48.378;9.948;2023-02-28T07:16:11;16.67;;;8.65;;
77495;SDS011;66600;48.378;9.948;2023-02-28T07:18:37;17.75;;;8.88;;
77495;SDS011;66600;48.378;9.948;2023-02-28T07:21:03;14.95;;;7.88;;
77495;SDS011;66600;48.378;9.948;2023-02-28T07:23:30;16.85;;;8.57;;
77495;SDS011;66600;48.378;9.948;2023-02-28T07:25:56;18.48;;;9.07;;
77495;SDS011;66600;48.378;9.948;2023-02-28T07:28:21;20.25;;;9.10;;
77495;SDS011;66600;48.378;9.948;2023-02-28T07:30:47;21.63;;;11.10;;
77495;SDS011;66600;48.378;9.948;2023-02-28T07:33:13;20.35;;;9.18;;
77495;SDS011;66600;48.378;9.948;2023-02-28T07:35:38;17.40;;;8.88;;
77495;SDS011;66600;48.378;9.948;2023-02-28T07:38:04;17.77;;;9.27;;
77495;SDS011;66600;48.378;9.948;2023-02-28T07:40:30;19.65;;;8.88;;
77495;SDS011;66600;48.378;9.948;2023-02-28T07:42:56;17.27;;;9.02;;
77495;SDS011;66600;48.378;9.948;2023-02-28T07:45:21;17.45;;;9.02;;
77495;SDS011;66600;48.378;9.948;2023-02-28T07:47:46;15.20;;;9.52;;
77495;SDS011;66600;48.378;9.948;2023-02-28T07:50:13;18.13;;;8.93;;
77495;SDS011;66600;48.378;9.948;2023-02-28T07:52:39;16.50;;;8.70;;
77495;SDS011;66600;48.378;9.948;2023-02-28T07:55:06;16.67;;;9.20;;
77495;SDS011;66600;48.378;9.948;2023-02-28T07:57:32;15.02;;;8.77;;
77495;SDS011;66600;48.378;9.948;2023-02-28T07:59:58;17.27;;;9.18;;
77495;SDS011;66600;48.378;9.948;2023-02-28T08:02:23;19.80;;;9.65;;
77495;SDS011;66600;48.378;9.948;2023-02-28T08:04:49;17.90;;;8.80;;
77495;SDS011;66600;48.378;9.948;2023-02-28T08:07:15;17.90;;;9.05;;
77495;SDS011;66600;48.378;9.948;2023-02-28T08:09:41;14.98;;;8.27;;
77495;SDS011;66600;48.378;9.948;2023-02-28T08:12:07;18.90;;;8.60;;
77495;SDS011;66600;48.378;9.948;2023-02-28T08:14:34;16.15;;;9.23;;
77495;SDS011;66600;48.378;9.948;2023-02-28T08:17:00;20.05;;;9.82;;
77495;SDS011;66600;48.378;9.948;2023-02-28T08:19:25;15.95;;;8.80;;
77495;SDS011;66600;48.378;9.948;2023-02-28T08:21:50;20.42;;;9.88;;
77495;SDS011;66600;48.378;9.948;2023-02-28T08:24:16;17.95;;;9.02;;
77495;SDS011;66600;48.378;9.948;2023-02-28T08:26:41;18.65;;;9.23;;
77495;SDS011;66600;48.378;9.948;2023-02-28T08:29:06;18.58;;;8.57;;
77495;SDS011;66600;48.378;9.948;2023-02-28T08:31:32;20.10;;;8.90;;
77495;SDS011;66600;48.378;9.948;2023-02-28T08:33:57;19.02;;;8.80;;
77495;SDS011;66600;48.378;9.948;2023-02-28T08:36:24;18.52;;;10.13;;
77495;SDS011;66600;48.378;9.948;2023-02-28T08:38:50;22.08;;;9.00;;
77495;SDS011;66600;48.378;9.948;2023-02-28T08:41:16;17.58;;;9.40;;
77495;SDS011;66600;48.378;9.948;2023-02-28T08:43:41;17.52;;;9.88;;
77495;SDS011;66600;48.378;9.948;2023-02-28T08:46:07;17.77;;;9.63;;
77495;SDS011;66600;48.378;9.948;2023-02-28T08:48:35;17.03;;;8.13;;
77495;SDS011;66600;48.378;9.948;2023-02-28T08:51:07;16.80;;;8.75;;
77495;SDS011;66600;48.378;9.948;2023-02-28T08:53:37;17.20;;;8.82;;
77495;SDS011;66600;48.378;9.948;2023-02-28T08:56:13;15.68;;;8.70;;
77495;SDS011;66600;48.378;9.948;2023-02-28T08:58:41;16.25;;;8.65;;
77495;SDS011;66600;48.378;9.948;2023-02-28T09:01:10;17.55;;;9.48;;
77495;SDS011;66600;48.378;9.948;2023-02-28T09:03:45;15.05;;;8.82;;
77495;SDS011;66600;48.378;9.948;2023-02-28T09:06:12;16.95;;;8.38;;
77495;SDS011;66600;48.378;9.948;2023-02-28T09:08:39;18.75;;;9.82;;
77495;SDS011;66600;48.378;9.948;2023-02-28T09:11:05;18.35;;;10.13;;
77495;SDS011;66600;48.378;9.948;2023-02-28T09:13:31;16.90;;;9.32;;
77495;SDS011;66600;48.378;9.948;2023-02-28T09:15:57;16.85;;;9.40;;
77495;SDS011;66600;48.378;9.948;2023-02-28T09:18:24;15.82;;;9.07;;
77495;SDS011;66600;48.378;9.948;2023-02-28T09:20:51;13.68;;;7.82;;
77495;SDS011;66600;48.378;9.948;2023-02-28T09:23:16;14.52;;;8.55;;
77495;SDS011;66600;48.378;9.948;2023-02-28T09:25:45;15.70;;;8.70;;
77495;SDS011;66600;48.378;9.948;2023-02-28T09:28:16;16.70;;;9.05;;
77495;SDS011;66600;48.378;9.948;2023-02-28T09:30:44;20.45;;;11.20;;
77495;SDS011;66600;48.378;9.948;2023-02-28T09:33:10;15.10;;;8.85;;
77495;SDS011;66600;48.378;9.948;2023-02-28T09:35:36;18.15;;;9.48;;
77495;SDS011;66600;48.378;9.948;2023-02-28T09:38:02;16.20;;;9.77;;
77495;SDS011;66600;48.378;9.948;2023-02-28T09:40:28;21.55;;;9.88;;
77495;SDS011;66600;48.378;9.948;2023-02-28T09:42:55;21.45;;;10.80;;
77495;SDS011;66600;48.378;9.948;2023-02-28T09:45:29;16.90;;;9.07;;
77495;SDS011;66600;48.378;9.948;2023-02-28T09:48:04;18.92;;;10.38;;
77495;SDS011;66600;48.378;9.948;2023-02-28T09:50:38;18.48;;;9.57;;
77495;SDS011;66600;48.378;9.948;2023-02-28T09:53:13;17.38;;;9.00;;
77495;SDS011;66600;48.378;9.948;2023-02-28T09:55:45;13.05;;;8.27;;
77495;SDS011;66600;48.378;9.948;2023-02-28T09:58:16;15.60;;;8.98;;
77495;SDS011;66600;48.378;9.948;2023-02-28T10:03:53;14.82;;;8.60;;
77495;SDS011;66600;48.378;9.948;2023-02-28T10:06:22;14.25;;;8.55;;
77495;SDS011;66600;48.378;9.948;2023-02-28T10:09:03;15.55;;;8.80;;
77495;SDS011;66600;48.378;9.948;2023-02-28T10:11:34;16.88;;;8.70;;
77495;SDS011;66600;48.378;9.948;2023-02-28T10:14:07;15.25;;;9.55;;
77495;SDS011;66600;48.378;9.948;2023-02-28T10:16:48;16.13;;;8.98;;
77495;SDS011;66600;48.378;9.948;2023-02-28T10:19:26;18.00;;;9.93;;
77495;SDS011;66600;48.378;9.948;2023-02-28T10:22:02;22.30;;;12.17;;
77495;SDS011;66600;48.378;9.948;2023-02-28T10:24:48;16.15;;;9.45;;
77495;SDS011;66600;48.378;9.948;2023-02-28T10:27:17;17.95;;;9.80;;
77495;SDS011;66600;48.378;9.948;2023-02-28T10:29:44;15.35;;;8.65;;
77495;SDS011;66600;48.378;9.948;2023-02-28T10:32:18;17.80;;;10.02;;
77495;SDS011;66600;48.378;9.948;2023-02-28T10:37:37;18.30;;;10.35;;
77495;SDS011;66600;48.378;9.948;2023-02-28T10:40:04;18.40;;;10.43;;
77495;SDS011;66600;48.378;9.948;2023-02-28T10:42:58;17.63;;;9.82;;
77495;SDS011;66600;48.378;9.948;2023-02-28T10:45:28;20.08;;;9.57;;
77495;SDS011;66600;48.378;9.948;2023-02-28T10:48:00;17.67;;;10.27;;
77495;SDS011;66600;48.378;9.948;2023-02-28T10:50:43;17.70;;;9.50;;
77495;SDS011;66600;48.378;9.948;2023-02-28T10:58:42;18.70;;;10.02;;
77495;SDS011;66600;48.378;9.948;2023-02-28T11:01:16;16.15;;;9.85;;
77495;SDS011;66600;48.378;9.948;2023-02-28T11:03:46;15.02;;;8.57;;
77495;SDS011;66600;48.378;9.948;2023-02-28T11:08:56;18.25;;;9.80;;
77495;SDS011;66600;48.378;9.948;2023-02-28T11:11:24;19.25;;;9.93;;
77495;SDS011;66600;48.378;9.948;2023-02-28T11:13:53;19.02;;;10.45;;
77495;SDS011;66600;48.378;9.948;2023-02-28T11:16:21;16.20;;;10.20;;
77495;SDS011;66600;48.378;9.948;2023-02-28T11:18:53;16.42;;;9.60;;
77495;SDS011;66600;48.378;9.948;2023-02-28T11:21:26;14.93;;;8.93;;
77495;SDS011;66600;48.378;9.948;2023-02-28T11:23:56;16.05;;;9.05;;
77495;SDS011;66600;48.378;9.948;2023-02-28T11:29:24;15.57;;;8.55;;
77495;SDS011;66600;48.378;9.948;2023-02-28T11:32:12;17.08;;;9.63;;
77495;SDS011;66600;48.378;9.948;2023-02-28T11:34:44;16.15;;;10.43;;
77495;SDS011;66600;48.378;9.948;2023-02-28T11:37:12;14.68;;;7.45;;
77495;SDS011;66600;48.378;9.948;2023-02-28T11:39:39;15.13;;;9.23;;
77495;SDS011;66600;48.378;9.948;2023-02-28T11:47:35;18.05;;;9.98;;
77495;SDS011;66600;48.378;9.948;2023-02-28T11:52:52;17.65;;;10.32;;
77495;SDS011;66600;48.378;9.948;2023-02-28T11:58:25;17.23;;;9.55;;
77495;SDS011;66600;48.378;9.948;2023-02-28T12:03:39;18.20;;;10.40;;
77495;SDS011;66600;48.378;9.948;2023-02-28T12:28:44;19.65;;;10.55;;
77495;SDS011;66600;48.378;9.948;2023-02-28T12:34:06;17.88;;;10.05;;
77495;SDS011;66600;48.378;9.948;2023-02-28T12:36:37;15.25;;;8.88;;
77495;SDS011;66600;48.378;9.948;2023-02-28T12:39:08;16.75;;;8.90;;
77495;SDS011;66600;48.378;9.948;2023-02-28T12:41:47;18.40;;;10.38;;
77495;SDS011;66600;48.378;9.948;2023-02-28T12:44:21;14.73;;;9.05;;
77495;SDS011;66600;48.378;9.948;2023-02-28T12:46:55;15.38;;;9.05;;
77495;SDS011;66600;48.378;9.948;2023-02-28T12:49:32;11.77;;;7.28;;
77495;SDS011;66600;48.378;9.948;2023-02-28T12:52:02;16.88;;;9.48;;
77495;SDS011;66600;48.378;9.948;2023-02-28T12:54:35;17.27;;;9.10;;
77495;SDS011;66600;48.378;9.948;2023-02-28T13:00:08;16.98;;;9.55;;
77495;SDS011;66600;48.378;9.948;2023-02-28T13:02:45;17.33;;;9.75;;
77495;SDS011;66600;48.378;9.948;2023-02-28T13:10:48;17.08;;;9.70;;
77495;SDS011;66600;48.378;9.948;2023-02-28T13:13:25;17.05;;;9.45;;
77495;SDS011;66600;48.378;9.948;2023-02-28T13:18:43;17.90;;;9.52;;
77495;SDS011;66600;48.378;9.948;2023-02-28T13:21:21;15.27;;;9.10;;
77495;SDS011;66600;48.378;9.948;2023-02-28T13:26:21;15.15;;;9.13;;
77495;SDS011;66600;48.378;9.948;2023-02-28T13:31:18;15.73;;;9.13;;
77495;SDS011;66600;48.378;9.948;2023-02-28T13:39:11;16.15;;;9.23;;
77495;SDS011;66600;48.378;9.948;2023-02-28T13:41:47;17.08;;;9.30;;
77495;SDS011;66600;48.378;9.948;2023-02-28T13:44:14;16.70;;;9.10;;
77495;SDS011;66600;48.378;9.948;2023-02-28T13:51:55;15.48;;;8.82;;
77495;SDS011;66600;48.378;9.948;2023-02-28T14:05:29;15.98;;;8.70;;
77495;SDS011;66600;48.378;9.948;2023-02-28T14:07:58;13.73;;;7.70;;
77495;SDS011;66600;48.378;9.948;2023-02-28T14:10:30;14.93;;;7.70;;
77495;SDS011;66600;48.378;9.948;2023-02-28T14:13:36;16.33;;;8.68;;
77495;SDS011;66600;48.378;9.948;2023-02-28T14:16:04;15.00;;;9.20;;
77495;SDS011;66600;48.378;9.948;2023-02-28T14:18:35;15.82;;;9.27;;
77495;SDS011;66600;48.378;9.948;2023-02-28T14:23:55;15.35;;;9.02;;
77495;SDS011;66600;48.378;9.948;2023-02-28T14:35:19;12.13;;;7.50;;
77495;SDS011;66600;48.378;9.948;2023-02-28T14:37:46;14.02;;;8.15;;
77495;SDS011;66600;48.378;9.948;2023-02-28T14:40:17;13.18;;;7.18;;
77495;SDS011;66600;48.378;9.948;2023-02-28T14:42:56;15.25;;;8.00;;
77495;SDS011;66600;48.378;9.948;2023-02-28T14:45:24;14.85;;;7.82;;
77495;SDS011;66600;48.378;9.948;2023-02-28T14:47:52;15.27;;;8.57;;
77495;SDS011;66600;48.378;9.948;2023-02-28T14:50:22;13.80;;;8.63;;
77495;SDS011;66600;48.378;9.948;2023-02-28T14:52:55;13.15;;;8.40;;
77495;SDS011;66600;48.378;9.948;2023-02-28T14:55:32;15.70;;;8.98;;
77495;SDS011;66600;48.378;9.948;2023-02-28T14:58:01;14.27;;;8.38;;
77495;SDS011;66600;48.378;9.948;2023-02-28T15:00:53;14.85;;;8.75;;
77495;SDS011;66600;48.378;9.948;2023-02-28T15:06:22;14.68;;;8.77;;
77495;SDS011;66600;48.378;9.948;2023-02-28T15:08:42;15.07;;;8.68;;
77495;SDS011;66600;48.378;9.948;2023-02-28T15:11:09;15.30;;;8.18;;
77495;SDS011;66600;48.378;9.948;2023-02-28T15:13:57;15.80;;;8.27;;
77495;SDS011;66600;48.378;9.948;2023-02-28T15:16:28;16.65;;;8.32;;
77495;SDS011;66600;48.378;9.948;2023-02-28T15:19:08;15.10;;;8.43;;
77495;SDS011;66600;48.378;9.948;2023-02-28T15:21:53;17.45;;;8.77;;
77495;SDS011;66600;48.378;9.948;2023-02-28T15:24:41;17.15;;;8.55;;
77495;SDS011;66600;48.378;9.948;2023-02-28T15:27:15;16.73;;;9.02;;
77495;SDS011;66600;48.378;9.948;2023-02-28T15:29:47;15.82;;;8.82;;
77495;SDS011;66600;48.378;9.948;2023-02-28T15:32:35;16.30;;;8.82;;
77495;SDS011;66600;48.378;9.948;2023-02-28T15:35:26;17.13;;;8.77;;
77495;SDS011;66600;48.378;9.948;2023-02-28T15:40:40;16.33;;;8.25;;
77495;SDS011;66600;48.378;9.948;2023-02-28T15:43:12;18.52;;;9.30;;
77495;SDS011;66600;48.378;9.948;2023-02-28T15:48:11;14.52;;;8.65;;
77495;SDS011;66600;48.378;9.948;2023-02-28T15:50:41;14.07;;;7.60;;
77495;SDS011;66600;48.378;9.948;2023-02-28T15:53:12;15.75;;;8.45;;
77495;SDS011;66600;48.378;9.948;2023-02-28T15:55:40;14.98;;;7.82;;
77495;SDS011;66600;48.378;9.948;2023-02-28T15:58:08;15.27;;;8.88;;
77495;SDS011;66600;48.378;9.948;2023-02-28T16:00:37;14.73;;;8.93;;
77495;SDS011;66600;48.378;9.948;2023-02-28T16:03:22;13.52;;;8.20;;
77495;SDS011;66600;48.378;9.948;2023-02-28T16:08:41;14.13;;;7.75;;
77495;SDS011;66600;48.378;9.948;2023-02-28T16:11:08;14.70;;;7.88;;
77495;SDS011;66600;48.378;9.948;2023-02-28T16:13:35;14.80;;;8.05;;
77495;SDS011;66600;48.378;9.948;2023-02-28T16:16:00;13.52;;;8.05;;
77495;SDS011;66600;48.378;9.948;2023-02-28T16:18:26;16.60;;;8.27;;
77495;SDS011;66600;48.378;9.948;2023-02-28T16:20:52;15.32;;;8.20;;
77495;SDS011;66600;48.378;9.948;2023-02-28T16:23:18;15.38;;;8.50;;
77495;SDS011;66600;48.378;9.948;2023-02-28T16:25:44;13.88;;;8.60;;
77495;SDS011;66600;48.378;9.948;2023-02-28T16:28:21;13.40;;;8.18;;
77495;SDS011;66600;48.378;9.948;2023-02-28T16:33:18;17.27;;;9.05;;
77495;SDS011;66600;48.378;9.948;2023-02-28T16:35:43;16.02;;;8.82;;
77495;SDS011;66600;48.378;9.948;2023-02-28T16:38:09;15.10;;;8.73;;
77495;SDS011;66600;48.378;9.948;2023-02-28T16:40:35;16.85;;;8.65;;
77495;SDS011;66600;48.378;9.948;2023-02-28T16:43:03;18.75;;;8.32;;
77495;SDS011;66600;48.378;9.948;2023-02-28T16:45:31;14.82;;;8.48;;
77495;SDS011;66600;48.378;9.948;2023-02-28T16:47:57;13.88;;;8.30;;
77495;SDS011;66600;48.378;9.948;2023-02-28T16:50:23;15.65;;;8.45;;
77495;SDS011;66600;48.378;9.948;2023-02-28T16:52:50;17.45;;;8.70;;
77495;SDS011;66600;48.378;9.948;2023-02-28T16:55:17;14.82;;;7.93;;
77495;SDS011;66600;48.378;9.948;2023-02-28T16:57:43;17.13;;;8.40;;
77495;SDS011;66600;48.378;9.948;2023-02-28T17:00:13;15.40;;;8.40;;
77495;SDS011;66600;48.378;9.948;2023-02-28T17:02:39;16.02;;;8.68;;
77495;SDS011;66600;48.378;9.948;2023-02-28T17:05:05;17.48;;;8.75;;
77495;SDS011;66600;48.378;9.948;2023-02-28T17:07:31;19.15;;;9.18;;
77495;SDS011;66600;48.378;9.948;2023-02-28T17:09:56;14.88;;;8.02;;
77495;SDS011;66600;48.378;9.948;2023-02-28T17:12:22;16.83;;;8.55;;
77495;SDS011;66600;48.378;9.948;2023-02-28T17:14:47;17.20;;;8.93;;
77495;SDS011;66600;48.378;9.948;2023-02-28T17:17:15;16.10;;;8.40;;